Inkster, Michigan
Current Conditions -  °F | °C
As of 7:53 AM on Friday 24 Oct 2014 (Local Time) from KDTW Reporting Station
Haze Haze  
Wind Chill:   Ceiling: 22000
Heat Index:   Visibility: 6mi
Dew Point:   Wind: 3mph
Humidity: 89%   Direction: 180°S
Pressure: 30.09"   Gusts: NA
Location:  42.3°N, 83.31°W
Report Text: KDTW 241153Z 18003KT 6SM BR SCT140 BKN220 03/02 A3009 RMK AO2 SLP192 T00330017 10050 20028 58000
Loading
Personal Weather Stations






























Interactive Weather Map
Tropical Storm Tracking
New forecast layout! Learn more

10-Day Weather Forecast

Advertisements
Track Severe Weather on mobile